createdAt,value
2023-03-01T00:01:20.609Z,12.02
2023-03-01T00:03:47.725Z,11.20
2023-03-01T00:06:15.037Z,11.95
2023-03-01T00:08:42.191Z,11.00
2023-03-01T00:11:26.788Z,10.95
2023-03-01T00:13:56.641Z,9.07
2023-03-01T00:16:29.943Z,11.07
2023-03-01T00:18:58.471Z,11.00
2023-03-01T00:21:26.328Z,11.60
2023-03-01T00:23:54.635Z,12.05
2023-03-01T00:26:23.795Z,15.02
2023-03-01T00:28:51.453Z,12.07
2023-03-01T00:31:21.756Z,12.32
2023-03-01T00:36:16.624Z,10.75
2023-03-01T00:38:45.172Z,12.75
2023-03-01T00:41:15.047Z,11.77
2023-03-01T00:43:42.214Z,12.95
2023-03-01T00:46:15.619Z,11.02
2023-03-01T00:48:42.596Z,11.95
2023-03-01T00:51:17.952Z,9.70
2023-03-01T00:53:45.520Z,12.32
2023-03-01T00:56:14.077Z,12.70
2023-03-01T00:58:41.382Z,9.25
2023-03-01T01:01:20.462Z,9.95
2023-03-01T01:03:52.962Z,9.18
2023-03-01T01:06:28.721Z,9.88
2023-03-01T01:08:56.650Z,12.05
2023-03-01T01:11:25.489Z,14.90
2023-03-01T01:13:53.871Z,11.30
2023-03-01T01:16:22.141Z,12.82
2023-03-01T01:18:48.973Z,13.75
2023-03-01T01:21:18.449Z,11.77
2023-03-01T01:23:46.311Z,11.40
2023-03-01T01:26:16.734Z,14.10
2023-03-01T01:28:43.709Z,12.80
2023-03-01T01:31:10.562Z,10.10
2023-03-01T01:33:38.376Z,10.95
2023-03-01T01:36:06.370Z,13.57
2023-03-01T01:38:33.581Z,10.32
2023-03-01T01:41:00.399Z,12.18
2023-03-01T01:43:30.137Z,11.98
2023-03-01T01:46:04.828Z,10.90
2023-03-01T01:48:47.552Z,11.88
2023-03-01T01:51:19.664Z,11.82
2023-03-01T01:53:51.834Z,13.23
2023-03-01T01:56:20.056Z,12.35
2023-03-01T01:58:48.499Z,12.07
2023-03-01T02:01:15.364Z,14.30
2023-03-01T02:03:45.858Z,9.93
2023-03-01T02:06:37.150Z,12.50
2023-03-01T02:09:09.421Z,12.63
2023-03-01T02:11:38.628Z,11.00
2023-03-01T02:14:06.065Z,14.38
2023-03-01T02:16:34.052Z,10.23
2023-03-01T02:19:01.921Z,11.05
2023-03-01T02:21:37.552Z,11.45
2023-03-01T02:24:28.672Z,11.80
2023-03-01T02:26:57.221Z,15.27
2023-03-01T02:29:25.224Z,12.32
2023-03-01T02:31:57.562Z,12.88
2023-03-01T02:34:30.001Z,10.35
2023-03-01T02:37:02.175Z,12.73
2023-03-01T02:39:47.072Z,11.77
2023-03-01T02:42:17.772Z,12.00
2023-03-01T02:44:44.897Z,11.93
2023-03-01T02:47:11.606Z,12.90
2023-03-01T02:49:38.916Z,11.57
2023-03-01T02:52:31.640Z,11.75
2023-03-01T02:55:09.250Z,10.40
2023-03-01T02:57:38.961Z,12.32
2023-03-01T03:00:10.351Z,11.60
2023-03-01T03:02:37.923Z,11.30
2023-03-01T03:05:12.221Z,12.75
2023-03-01T03:07:41.410Z,12.55
2023-03-01T03:10:12.616Z,11.45
2023-03-01T03:12:39.710Z,11.75
2023-03-01T03:15:09.826Z,13.20
2023-03-01T03:17:38.340Z,10.77
2023-03-01T03:20:12.606Z,10.80
2023-03-01T03:22:40.923Z,12.48
2023-03-01T03:25:12.739Z,20.00
2023-03-01T03:27:44.968Z,18.73
2023-03-01T03:30:16.082Z,13.95
2023-03-01T03:32:51.625Z,12.90
2023-03-01T03:35:21.095Z,10.40
2023-03-01T03:38:03.011Z,13.60
2023-03-01T03:40:39.323Z,10.95
2023-03-01T03:43:11.749Z,15.80
2023-03-01T03:45:38.549Z,12.50
2023-03-01T03:48:08.818Z,12.55
2023-03-01T03:50:35.610Z,10.80
2023-03-01T03:53:05.718Z,10.75
2023-03-01T03:55:34.823Z,12.23
2023-03-01T03:58:07.636Z,11.02
2023-03-01T04:00:40.847Z,12.05
2023-03-01T04:03:08.855Z,12.52
2023-03-01T04:05:36.291Z,13.20
2023-03-01T04:08:03.659Z,12.30
2023-03-01T04:10:32.399Z,12.90
2023-03-01T04:12:59.498Z,12.98
2023-03-01T04:15:28.105Z,12.43
2023-03-01T04:17:55.870Z,12.95
2023-03-01T04:20:25.599Z,12.43
2023-03-01T04:22:58.285Z,14.55
2023-03-01T04:25:25.697Z,12.98
2023-03-01T04:27:52.556Z,12.75
2023-03-01T04:30:19.360Z,11.68
2023-03-01T04:32:46.114Z,12.80
2023-03-01T04:35:12.910Z,11.07
2023-03-01T04:37:39.656Z,11.00
2023-03-01T04:40:17.312Z,12.80
2023-03-01T04:42:44.246Z,12.20
2023-03-01T04:45:14.060Z,12.85
2023-03-01T04:47:42.272Z,12.25
2023-03-01T04:50:10.048Z,13.80
2023-03-01T04:52:37.028Z,13.38
2023-03-01T04:55:04.544Z,13.43
2023-03-01T04:57:32.047Z,12.75
2023-03-01T04:59:58.982Z,13.02
2023-03-01T05:02:25.768Z,13.65
2023-03-01T05:04:52.828Z,13.80
2023-03-01T05:07:22.254Z,13.05
2023-03-01T05:09:49.329Z,13.40
2023-03-01T05:12:16.408Z,14.93
2023-03-01T05:14:43.197Z,13.18
2023-03-01T05:17:09.892Z,14.52
2023-03-01T05:19:36.720Z,13.60
2023-03-01T05:22:04.676Z,12.45
2023-03-01T05:24:35.043Z,13.65
2023-03-01T05:29:31.557Z,13.13
2023-03-01T05:32:00.137Z,13.20
2023-03-01T05:34:29.294Z,14.77
2023-03-01T05:36:56.261Z,17.20
2023-03-01T05:39:25.522Z,14.13
2023-03-01T05:42:00.686Z,14.23
2023-03-01T05:44:28.884Z,15.50
2023-03-01T05:46:56.111Z,17.05
2023-03-01T05:49:26.884Z,19.10
2023-03-01T05:51:54.988Z,14.52
2023-03-01T05:54:22.901Z,13.20
2023-03-01T05:56:49.803Z,14.15
2023-03-01T05:59:17.322Z,13.50
2023-03-01T06:01:44.618Z,13.93
2023-03-01T06:04:11.496Z,14.27
2023-03-01T06:06:38.871Z,13.38
2023-03-01T06:09:08.197Z,16.63
2023-03-01T06:11:36.063Z,14.23
2023-03-01T06:14:03.020Z,13.90
2023-03-01T06:16:30.120Z,13.45
2023-03-01T06:18:56.977Z,13.63
2023-03-01T06:21:23.738Z,13.48
2023-03-01T06:23:50.643Z,15.98
2023-03-01T06:26:17.461Z,15.98
2023-03-01T06:28:47.058Z,16.77
2023-03-01T06:31:13.951Z,16.40
2023-03-01T06:33:41.001Z,13.57
2023-03-01T06:36:08.847Z,17.42
2023-03-01T06:38:35.667Z,13.13
2023-03-01T06:41:02.922Z,14.70
2023-03-01T06:43:29.681Z,13.32
2023-03-01T06:45:56.674Z,14.48
2023-03-01T06:48:23.453Z,14.35
2023-03-01T06:50:50.214Z,13.40
2023-03-01T06:53:17.147Z,12.90
2023-03-01T06:55:43.894Z,14.30
2023-03-01T06:58:11.264Z,17.42
2023-03-01T07:00:38.034Z,12.13
2023-03-01T07:03:04.821Z,17.02
2023-03-01T07:05:31.803Z,13.20
2023-03-01T07:07:58.607Z,13.60
2023-03-01T07:10:25.581Z,13.90
2023-03-01T07:12:56.501Z,14.77
2023-03-01T07:15:23.265Z,13.82
2023-03-01T07:17:51.696Z,15.65
2023-03-01T07:20:25.495Z,14.60
2023-03-01T07:22:57.447Z,15.43
2023-03-01T07:25:24.325Z,17.77
2023-03-01T07:27:54.658Z,14.18
2023-03-01T07:32:48.902Z,12.80
2023-03-01T07:35:15.942Z,15.90
2023-03-01T07:37:42.784Z,13.32
2023-03-01T07:40:10.340Z,13.93
2023-03-01T07:42:37.134Z,13.82
2023-03-01T07:45:05.744Z,13.25
2023-03-01T07:47:32.896Z,15.10
2023-03-01T07:49:59.651Z,13.48
2023-03-01T07:52:26.577Z,12.98
2023-03-01T07:54:53.337Z,16.10
2023-03-01T07:57:20.979Z,14.48
2023-03-01T07:59:47.726Z,15.30
2023-03-01T08:02:16.300Z,16.40
2023-03-01T08:04:43.551Z,14.73
2023-03-01T08:07:10.285Z,18.13
2023-03-01T08:09:39.968Z,16.20
2023-03-01T08:12:06.900Z,17.45
2023-03-01T08:14:33.944Z,13.60
2023-03-01T08:17:00.803Z,16.67
2023-03-01T08:19:29.089Z,15.70
2023-03-01T08:21:59.073Z,17.10
2023-03-01T08:24:26.124Z,14.27
2023-03-01T08:26:52.820Z,12.60
2023-03-01T08:29:19.544Z,14.75
2023-03-01T08:31:46.411Z,12.75
2023-03-01T08:34:15.694Z,12.73
2023-03-01T08:36:44.784Z,11.73
2023-03-01T08:39:14.468Z,12.48
2023-03-01T08:41:41.541Z,11.60
2023-03-01T08:44:08.808Z,12.70
2023-03-01T08:46:41.665Z,14.38
2023-03-01T08:49:11.928Z,13.63
2023-03-01T08:51:39.021Z,12.18
2023-03-01T08:54:07.721Z,11.93
2023-03-01T08:56:34.752Z,16.13
2023-03-01T08:59:01.518Z,12.40
2023-03-01T09:01:28.315Z,11.27
2023-03-01T09:03:55.149Z,11.10
2023-03-01T09:06:22.481Z,12.77
2023-03-01T09:08:50.904Z,12.00
2023-03-01T09:11:21.467Z,10.77
2023-03-01T09:13:49.373Z,14.30
2023-03-01T09:16:18.863Z,11.15
2023-03-01T09:18:46.352Z,12.13
2023-03-01T09:21:15.464Z,11.85
2023-03-01T09:23:44.189Z,12.73
2023-03-01T09:26:17.606Z,13.63
2023-03-01T09:28:47.201Z,14.35
2023-03-01T09:31:15.187Z,12.65
2023-03-01T09:33:43.392Z,10.25
2023-03-01T09:36:14.344Z,10.20
2023-03-01T09:38:41.231Z,10.77
2023-03-01T09:41:48.428Z,11.15
2023-03-01T09:44:18.380Z,10.63
2023-03-01T09:46:46.877Z,13.10
2023-03-01T09:49:26.269Z,11.00
2023-03-01T09:52:08.148Z,11.65
2023-03-01T09:54:35.003Z,10.75
2023-03-01T09:57:04.615Z,11.60
2023-03-01T10:00:18.870Z,12.65
2023-03-01T10:02:57.957Z,11.25
2023-03-01T10:06:08.833Z,13.15
2023-03-01T10:09:01.632Z,9.50
2023-03-01T10:11:33.304Z,12.60
2023-03-01T10:14:06.083Z,8.07
2023-03-01T10:16:44.397Z,8.73
2023-03-01T10:19:24.040Z,9.30
2023-03-01T10:21:52.592Z,7.68
2023-03-01T10:24:23.599Z,8.57
2023-03-01T10:27:00.124Z,7.38
2023-03-01T10:29:45.660Z,8.25
2023-03-01T10:32:12.583Z,9.27
2023-03-01T10:34:39.360Z,7.65
2023-03-01T10:37:13.527Z,8.95
2023-03-01T10:40:13.794Z,8.52
2023-03-01T10:42:48.832Z,8.75
2023-03-01T10:45:27.546Z,7.50
2023-03-01T10:48:12.937Z,6.97
2023-03-01T10:50:42.398Z,7.72
2023-03-01T10:53:25.722Z,7.07
2023-03-01T10:56:14.635Z,8.65
2023-03-01T10:58:57.660Z,7.47
2023-03-01T11:01:24.427Z,10.25
2023-03-01T11:04:06.832Z,7.00
2023-03-01T11:06:35.168Z,7.70
2023-03-01T11:09:15.778Z,8.68
2023-03-01T11:11:43.209Z,10.18
2023-03-01T11:14:26.719Z,8.98
2023-03-01T11:17:14.887Z,6.88
2023-03-01T11:19:45.214Z,7.53
2023-03-01T11:22:22.931Z,6.07
2023-03-01T11:25:08.450Z,6.85
2023-03-01T11:27:41.208Z,7.47
2023-03-01T11:30:21.687Z,8.30
2023-03-01T11:35:23.038Z,6.60
2023-03-01T11:38:22.194Z,8.80
2023-03-01T11:41:26.375Z,5.03
2023-03-01T11:44:25.355Z,6.00
2023-03-01T11:47:12.782Z,6.57
2023-03-01T11:50:01.316Z,8.18
2023-03-01T11:52:39.912Z,6.15
2023-03-01T11:55:27.375Z,5.68
2023-03-01T11:58:07.425Z,7.00
2023-03-01T12:01:08.651Z,6.60
2023-03-01T12:03:52.459Z,5.75
2023-03-01T12:06:38.772Z,8.52
2023-03-01T12:09:28.937Z,5.70
2023-03-01T12:12:20.316Z,10.50
2023-03-01T12:14:59.580Z,7.65
2023-03-01T12:18:00.428Z,7.90
2023-03-01T12:21:06.439Z,7.50
2023-03-01T12:23:45.512Z,6.00
2023-03-01T12:26:21.192Z,7.72
2023-03-01T12:29:03.227Z,7.70
2023-03-01T12:31:39.210Z,7.03
2023-03-01T12:34:32.997Z,7.95
2023-03-01T12:37:21.825Z,7.97
2023-03-01T12:39:57.356Z,10.32
2023-03-01T12:42:48.417Z,10.77
2023-03-01T12:45:40.862Z,8.68
2023-03-01T12:48:25.966Z,6.93
2023-03-01T12:50:54.488Z,9.20
2023-03-01T12:53:28.809Z,6.45
2023-03-01T12:55:59.362Z,7.15
2023-03-01T12:58:47.162Z,9.10
2023-03-01T13:01:19.071Z,6.13
2023-03-01T13:04:24.256Z,6.97
2023-03-01T13:07:20.371Z,8.43
2023-03-01T13:10:06.125Z,6.55
2023-03-01T13:12:52.697Z,7.30
2023-03-01T13:15:26.626Z,6.82
2023-03-01T13:18:01.987Z,7.40
2023-03-01T13:20:33.107Z,7.10
2023-03-01T13:23:27.693Z,7.85
2023-03-01T13:26:04.866Z,8.65
2023-03-01T13:28:47.442Z,7.20
2023-03-01T13:31:17.129Z,5.45
2023-03-01T13:33:47.564Z,9.02
2023-03-01T13:36:30.299Z,6.88
2023-03-01T13:39:00.450Z,8.27
2023-03-01T13:41:42.436Z,7.13
2023-03-01T13:44:29.967Z,8.55
2023-03-01T13:46:56.727Z,7.72
2023-03-01T13:49:31.479Z,7.75
2023-03-01T13:52:03.018Z,7.30
2023-03-01T13:54:33.164Z,7.25
2023-03-01T13:57:02.703Z,7.75
2023-03-01T13:59:31.186Z,7.63
2023-03-01T14:02:00.491Z,6.35
2023-03-01T14:04:28.972Z,6.97
2023-03-01T14:07:22.370Z,7.88
2023-03-01T14:10:02.574Z,6.68
2023-03-01T14:13:03.333Z,7.88
2023-03-01T14:15:48.518Z,8.25
2023-03-01T14:18:27.272Z,7.88
2023-03-01T14:20:54.052Z,5.93
2023-03-01T14:23:24.316Z,7.78
2023-03-01T14:25:57.701Z,8.02
2023-03-01T14:28:29.731Z,7.47
2023-03-01T14:30:58.507Z,6.68
2023-03-01T14:33:25.315Z,7.18
2023-03-01T14:35:57.643Z,7.47
2023-03-01T14:38:31.523Z,7.47
2023-03-01T14:41:02.495Z,7.40
2023-03-01T14:43:31.464Z,8.73
2023-03-01T14:45:58.783Z,9.18
2023-03-01T14:48:26.283Z,8.57
2023-03-01T14:50:53.243Z,6.15
2023-03-01T14:53:31.558Z,6.50
2023-03-01T14:56:03.440Z,6.18
2023-03-01T14:58:33.719Z,7.07
2023-03-01T15:01:03.865Z,7.45
2023-03-01T15:03:41.201Z,6.78
2023-03-01T15:06:09.339Z,7.25
2023-03-01T15:08:38.043Z,8.15
2023-03-01T15:11:25.924Z,8.68
2023-03-01T15:13:53.707Z,8.80
2023-03-01T15:16:26.067Z,6.53
2023-03-01T15:19:01.809Z,6.88
2023-03-01T15:21:39.708Z,6.82
2023-03-01T15:24:21.180Z,6.13
2023-03-01T15:27:02.919Z,6.63
2023-03-01T15:29:31.730Z,7.75
2023-03-01T15:32:01.839Z,7.18
2023-03-01T15:34:38.309Z,8.07
2023-03-01T15:37:16.733Z,14.82
2023-03-01T15:40:05.224Z,6.70
2023-03-01T15:42:31.940Z,7.82
2023-03-01T15:45:17.908Z,6.95
2023-03-01T15:47:49.964Z,8.65
2023-03-01T15:50:44.699Z,6.80
2023-03-01T15:53:15.482Z,9.77
2023-03-01T15:55:42.632Z,7.30
2023-03-01T15:58:25.396Z,9.30
2023-03-01T16:01:01.957Z,6.82
2023-03-01T16:03:29.494Z,6.60
2023-03-01T16:05:56.482Z,7.68
2023-03-01T16:08:23.209Z,8.70
2023-03-01T16:10:52.082Z,7.32
2023-03-01T16:13:19.129Z,8.88
2023-03-01T16:15:46.118Z,7.65
2023-03-01T16:18:13.126Z,8.02
2023-03-01T16:20:41.102Z,7.63
2023-03-01T16:23:09.320Z,7.43
2023-03-01T16:25:37.197Z,6.70
2023-03-01T16:28:09.784Z,6.53
2023-03-01T16:30:38.431Z,8.18
2023-03-01T16:33:24.543Z,10.52
2023-03-01T16:35:55.530Z,9.18
2023-03-01T16:38:22.631Z,6.85
2023-03-01T16:40:50.996Z,7.68
2023-03-01T16:43:18.012Z,9.93
2023-03-01T16:45:46.445Z,8.70
2023-03-01T16:48:13.540Z,7.93
2023-03-01T16:50:40.737Z,9.00
2023-03-01T16:53:07.984Z,7.50
2023-03-01T16:55:34.828Z,9.88
2023-03-01T16:58:02.061Z,7.70
2023-03-01T17:00:29.540Z,10.13
2023-03-01T17:02:56.586Z,11.27
2023-03-01T17:05:25.056Z,7.43
2023-03-01T17:07:52.049Z,8.27
2023-03-01T17:10:19.087Z,8.15
2023-03-01T17:12:48.696Z,9.90
2023-03-01T17:15:15.500Z,10.07
2023-03-01T17:17:42.336Z,9.55
2023-03-01T17:20:10.454Z,12.20
2023-03-01T17:22:37.396Z,10.10
2023-03-01T17:25:04.443Z,9.48
2023-03-01T17:27:35.486Z,7.90
2023-03-01T17:30:03.004Z,7.90
2023-03-01T17:32:29.912Z,10.27
2023-03-01T17:34:57.084Z,9.50
2023-03-01T17:37:23.916Z,10.20
2023-03-01T17:39:50.817Z,9.85
2023-03-01T17:42:17.620Z,10.45
2023-03-01T17:44:44.432Z,11.15
2023-03-01T17:47:11.355Z,10.43
2023-03-01T17:49:38.076Z,10.98
2023-03-01T17:52:04.965Z,9.93
2023-03-01T17:54:33.451Z,11.18
2023-03-01T17:57:00.335Z,10.95
2023-03-01T17:59:31.268Z,11.30
2023-03-01T18:01:58.541Z,12.18
2023-03-01T18:04:25.259Z,11.38
2023-03-01T18:06:52.035Z,14.70
2023-03-01T18:09:18.831Z,16.95
2023-03-01T18:11:47.840Z,16.08
2023-03-01T18:14:14.693Z,22.85
2023-03-01T18:16:41.497Z,18.08
2023-03-01T18:19:08.271Z,15.13
2023-03-01T18:21:35.013Z,15.23
2023-03-01T18:24:01.881Z,15.73
2023-03-01T18:26:29.773Z,16.85
2023-03-01T18:28:58.447Z,16.23
2023-03-01T18:31:25.624Z,16.13
2023-03-01T18:33:55.170Z,12.93
2023-03-01T18:36:34.922Z,14.00
2023-03-01T18:39:04.123Z,10.88
2023-03-01T18:41:32.872Z,11.10
2023-03-01T18:44:01.014Z,9.05
2023-03-01T18:46:28.001Z,11.75
2023-03-01T18:48:55.353Z,15.93
2023-03-01T18:51:25.367Z,11.85
2023-03-01T18:53:52.312Z,11.45
2023-03-01T18:56:19.114Z,10.75
2023-03-01T18:58:45.883Z,9.23
2023-03-01T19:01:17.511Z,10.88
2023-03-01T19:03:44.621Z,12.77
2023-03-01T19:06:11.509Z,11.43
2023-03-01T19:08:40.757Z,11.52
2023-03-01T19:11:08.182Z,10.70
2023-03-01T19:13:35.965Z,11.45
2023-03-01T19:16:14.304Z,11.85
2023-03-01T19:18:43.514Z,12.10
2023-03-01T19:21:11.951Z,15.48
2023-03-01T19:23:39.059Z,14.73
2023-03-01T19:26:08.289Z,16.70
2023-03-01T19:28:38.475Z,18.10
2023-03-01T19:31:09.127Z,17.92
2023-03-01T19:33:36.569Z,15.00
2023-03-01T19:36:04.403Z,12.38
2023-03-01T19:38:31.519Z,10.43
2023-03-01T19:40:58.265Z,14.50
2023-03-01T19:43:25.482Z,17.10
2023-03-01T19:45:53.374Z,13.68
2023-03-01T19:48:20.217Z,12.90
2023-03-01T19:50:47.063Z,15.32
2023-03-01T19:53:14.537Z,12.88
2023-03-01T19:55:42.373Z,14.10
2023-03-01T19:58:10.640Z,14.02
2023-03-01T20:00:38.925Z,15.80
2023-03-01T20:03:06.439Z,14.43
2023-03-01T20:05:35.156Z,15.20
2023-03-01T20:08:02.437Z,12.85
2023-03-01T20:10:33.520Z,15.00
2023-03-01T20:13:02.651Z,19.92
2023-03-01T20:15:29.620Z,15.75
2023-03-01T20:17:56.505Z,19.55
2023-03-01T20:20:23.327Z,19.27
2023-03-01T20:22:50.096Z,17.80
2023-03-01T20:25:17.459Z,20.52
2023-03-01T20:27:47.438Z,15.30
2023-03-01T20:30:15.504Z,19.58
2023-03-01T20:32:42.365Z,14.93
2023-03-01T20:35:09.966Z,13.50
2023-03-01T20:37:37.457Z,13.68
2023-03-01T20:40:04.647Z,14.30
2023-03-01T20:42:31.385Z,16.23
2023-03-01T20:44:58.176Z,14.82
2023-03-01T20:47:25.084Z,13.75
2023-03-01T20:49:52.063Z,18.95
2023-03-01T20:52:18.943Z,13.48
2023-03-01T20:54:45.678Z,14.82
2023-03-01T20:57:12.445Z,15.25
2023-03-01T20:59:39.159Z,13.18
2023-03-01T21:02:05.993Z,13.63
2023-03-01T21:04:32.762Z,14.60
2023-03-01T21:06:59.462Z,11.48
2023-03-01T21:09:26.234Z,13.02
2023-03-01T21:11:53.068Z,18.60
2023-03-01T21:14:21.490Z,14.07
2023-03-01T21:16:48.509Z,13.60
2023-03-01T21:19:15.695Z,14.43
2023-03-01T21:21:42.595Z,13.35
2023-03-01T21:24:10.548Z,13.88
2023-03-01T21:26:37.626Z,12.35
2023-03-01T21:29:04.709Z,11.95
2023-03-01T21:31:35.095Z,14.18
2023-03-01T21:34:04.759Z,11.70
2023-03-01T21:36:32.837Z,13.10
2023-03-01T21:39:02.108Z,13.23
2023-03-01T21:41:32.333Z,13.00
2023-03-01T21:44:00.814Z,13.95
2023-03-01T21:46:33.393Z,16.42
2023-03-01T21:49:00.318Z,14.55
2023-03-01T21:51:28.442Z,19.70
2023-03-01T21:53:56.147Z,15.15
2023-03-01T21:56:29.418Z,13.65
2023-03-01T21:58:58.060Z,14.48
2023-03-01T22:01:29.570Z,17.13
2023-03-01T22:03:58.096Z,15.52
2023-03-01T22:06:35.007Z,16.42
2023-03-01T22:09:05.962Z,13.05
2023-03-01T22:11:35.125Z,12.48
2023-03-01T22:14:01.863Z,13.55
2023-03-01T22:16:30.703Z,17.00
2023-03-01T22:18:58.063Z,13.80
2023-03-01T22:21:26.272Z,12.55
2023-03-01T22:23:54.890Z,17.48
2023-03-01T22:26:31.371Z,13.82
2023-03-01T22:29:00.942Z,13.93
2023-03-01T22:31:28.319Z,15.55
2023-03-01T22:33:56.232Z,13.75
2023-03-01T22:36:23.073Z,17.83
2023-03-01T22:38:52.197Z,17.98
2023-03-01T22:41:18.903Z,17.38
2023-03-01T22:43:45.580Z,18.33
2023-03-01T22:46:18.196Z,14.32
2023-03-01T22:48:45.515Z,16.52
2023-03-01T22:51:17.220Z,12.95
2023-03-01T22:53:44.289Z,14.82
2023-03-01T22:56:23.074Z,15.80
2023-03-01T22:58:50.437Z,12.48
2023-03-01T23:01:22.434Z,15.02
2023-03-01T23:03:50.145Z,16.83
2023-03-01T23:06:18.378Z,15.90
2023-03-01T23:08:49.915Z,16.23
2023-03-01T23:11:18.817Z,16.30
2023-03-01T23:13:45.698Z,15.60
2023-03-01T23:16:13.240Z,19.85
2023-03-01T23:18:40.496Z,16.65
2023-03-01T23:21:16.855Z,20.30
2023-03-01T23:23:44.283Z,21.75
2023-03-01T23:26:10.972Z,24.00
2023-03-01T23:28:41.199Z,25.73
2023-03-01T23:33:39.367Z,29.27
2023-03-01T23:36:07.568Z,23.23
2023-03-01T23:38:34.334Z,25.83
2023-03-01T23:41:01.132Z,29.23
2023-03-01T23:43:27.916Z,25.98
2023-03-01T23:45:54.891Z,29.13
2023-03-01T23:48:22.430Z,28.05
2023-03-01T23:50:49.824Z,29.98
2023-03-01T23:53:19.375Z,28.75
2023-03-01T23:55:51.131Z,27.88
2023-03-01T23:58:18.163Z,32.53
